sensor_id;sensor_type;location;lat;lon;timestamp;P1;durP1;ratioP1;P2;durP2;ratioP2
49812;SDS011;35706;52.100;5.056;2023-04-24T00:00:28;0.65;;;0.20;;
49812;SDS011;35706;52.100;5.056;2023-04-24T00:01:28;0.88;;;0.20;;
49812;SDS011;35706;52.100;5.056;2023-04-24T00:02:29;0.43;;;0.20;;
49812;SDS011;35706;52.100;5.056;2023-04-24T00:03:31;1.80;;;0.10;;
49812;SDS011;35706;52.100;5.056;2023-04-24T00:04:32;0.55;;;0.13;;
49812;SDS011;35706;52.100;5.056;2023-04-24T00:05:33;0.20;;;0.10;;
49812;SDS011;35706;52.100;5.056;2023-04-24T00:06:33;0.30;;;0.00;;
49812;SDS011;35706;52.100;5.056;2023-04-24T00:07:34;1.48;;;0.03;;
49812;SDS011;35706;52.100;5.056;2023-04-24T00:08:35;0.85;;;0.00;;
49812;SDS011;35706;52.100;5.056;2023-04-24T00:09:36;0.73;;;0.00;;
49812;SDS011;35706;52.100;5.056;2023-04-24T00:10:36;0.35;;;0.00;;
49812;SDS011;35706;52.100;5.056;2023-04-24T00:11:37;0.20;;;0.00;;
49812;SDS011;35706;52.100;5.056;2023-04-24T00:12:37;1.33;;;0.00;;
49812;SDS011;35706;52.100;5.056;2023-04-24T00:13:38;0.20;;;0.10;;
49812;SDS011;35706;52.100;5.056;2023-04-24T00:14:38;0.38;;;0.10;;
49812;SDS011;35706;52.100;5.056;2023-04-24T00:15:39;0.20;;;0.10;;
49812;SDS011;35706;52.100;5.056;2023-04-24T00:16:39;0.47;;;0.10;;
49812;SDS011;35706;52.100;5.056;2023-04-24T00:17:40;0.30;;;0.10;;
49812;SDS011;35706;52.100;5.056;2023-04-24T00:18:40;0.50;;;0.10;;
49812;SDS011;35706;52.100;5.056;2023-04-24T00:19:41;0.20;;;0.10;;
49812;SDS011;35706;52.100;5.056;2023-04-24T00:20:41;0.85;;;0.13;;
49812;SDS011;35706;52.100;5.056;2023-04-24T00:21:43;0.85;;;0.20;;
49812;SDS011;35706;52.100;5.056;2023-04-24T00:22:43;0.60;;;0.20;;
49812;SDS011;35706;52.100;5.056;2023-04-24T00:23:44;0.65;;;0.10;;
49812;SDS011;35706;52.100;5.056;2023-04-24T00:24:44;0.63;;;0.10;;
49812;SDS011;35706;52.100;5.056;2023-04-24T00:25:44;0.43;;;0.10;;
49812;SDS011;35706;52.100;5.056;2023-04-24T00:26:45;1.05;;;0.10;;
49812;SDS011;35706;52.100;5.056;2023-04-24T00:27:45;0.32;;;0.20;;
49812;SDS011;35706;52.100;5.056;2023-04-24T00:28:46;0.52;;;0.10;;
49812;SDS011;35706;52.100;5.056;2023-04-24T00:29:46;0.30;;;0.10;;
49812;SDS011;35706;52.100;5.056;2023-04-24T00:30:47;0.38;;;0.10;;
49812;SDS011;35706;52.100;5.056;2023-04-24T00:31:47;1.20;;;0.20;;
49812;SDS011;35706;52.100;5.056;2023-04-24T00:32:47;0.60;;;0.20;;
49812;SDS011;35706;52.100;5.056;2023-04-24T00:33:48;0.45;;;0.20;;
49812;SDS011;35706;52.100;5.056;2023-04-24T00:34:48;0.50;;;0.20;;
49812;SDS011;35706;52.100;5.056;2023-04-24T00:35:48;0.60;;;0.20;;
49812;SDS011;35706;52.100;5.056;2023-04-24T00:36:49;0.80;;;0.20;;
49812;SDS011;35706;52.100;5.056;2023-04-24T00:37:52;0.60;;;0.20;;
49812;SDS011;35706;52.100;5.056;2023-04-24T00:38:52;1.95;;;0.20;;
49812;SDS011;35706;52.100;5.056;2023-04-24T00:39:53;1.15;;;0.30;;
49812;SDS011;35706;52.100;5.056;2023-04-24T00:40:53;1.00;;;0.30;;
49812;SDS011;35706;52.100;5.056;2023-04-24T00:41:54;1.10;;;0.30;;
49812;SDS011;35706;52.100;5.056;2023-04-24T00:42:55;0.70;;;0.30;;
49812;SDS011;35706;52.100;5.056;2023-04-24T00:43:56;1.15;;;0.30;;
49812;SDS011;35706;52.100;5.056;2023-04-24T00:44:56;0.50;;;0.30;;
49812;SDS011;35706;52.100;5.056;2023-04-24T00:45:57;1.00;;;0.30;;
49812;SDS011;35706;52.100;5.056;2023-04-24T00:46:59;0.90;;;0.30;;
49812;SDS011;35706;52.100;5.056;2023-04-24T00:48:00;1.35;;;0.30;;
49812;SDS011;35706;52.100;5.056;2023-04-24T00:49:02;0.70;;;0.30;;
49812;SDS011;35706;52.100;5.056;2023-04-24T00:50:03;0.75;;;0.35;;
49812;SDS011;35706;52.100;5.056;2023-04-24T00:51:05;1.58;;;0.40;;
49812;SDS011;35706;52.100;5.056;2023-04-24T00:52:06;0.90;;;0.30;;
49812;SDS011;35706;52.100;5.056;2023-04-24T00:53:08;1.30;;;0.40;;
49812;SDS011;35706;52.100;5.056;2023-04-24T00:54:09;1.60;;;0.40;;
49812;SDS011;35706;52.100;5.056;2023-04-24T00:55:09;1.75;;;0.50;;
49812;SDS011;35706;52.100;5.056;2023-04-24T00:56:10;1.50;;;0.50;;
49812;SDS011;35706;52.100;5.056;2023-04-24T00:57:11;1.20;;;0.60;;
49812;SDS011;35706;52.100;5.056;2023-04-24T00:58:14;1.67;;;0.55;;
49812;SDS011;35706;52.100;5.056;2023-04-24T00:59:18;1.73;;;0.60;;
49812;SDS011;35706;52.100;5.056;2023-04-24T01:00:18;1.27;;;0.60;;
49812;SDS011;35706;52.100;5.056;2023-04-24T01:01:19;1.98;;;0.80;;
49812;SDS011;35706;52.100;5.056;2023-04-24T01:02:21;1.48;;;0.80;;
49812;SDS011;35706;52.100;5.056;2023-04-24T01:03:24;2.22;;;0.65;;
49812;SDS011;35706;52.100;5.056;2023-04-24T01:04:26;1.20;;;0.75;;
49812;SDS011;35706;52.100;5.056;2023-04-24T01:05:27;1.95;;;1.00;;
49812;SDS011;35706;52.100;5.056;2023-04-24T01:06:28;1.65;;;1.00;;
49812;SDS011;35706;52.100;5.056;2023-04-24T01:07:31;1.75;;;0.90;;
49812;SDS011;35706;52.100;5.056;2023-04-24T01:08:31;1.95;;;0.85;;
49812;SDS011;35706;52.100;5.056;2023-04-24T01:09:34;2.78;;;0.82;;
49812;SDS011;35706;52.100;5.056;2023-04-24T01:10:35;3.80;;;1.00;;
49812;SDS011;35706;52.100;5.056;2023-04-24T01:11:37;2.88;;;1.00;;
49812;SDS011;35706;52.100;5.056;2023-04-24T01:12:38;2.00;;;1.08;;
49812;SDS011;35706;52.100;5.056;2023-04-24T01:13:38;2.40;;;0.80;;
49812;SDS011;35706;52.100;5.056;2023-04-24T01:14:39;2.33;;;1.05;;
49812;SDS011;35706;52.100;5.056;2023-04-24T01:15:40;2.20;;;1.15;;
49812;SDS011;35706;52.100;5.056;2023-04-24T01:16:40;2.70;;;0.98;;
49812;SDS011;35706;52.100;5.056;2023-04-24T01:17:41;2.75;;;0.90;;
49812;SDS011;35706;52.100;5.056;2023-04-24T01:18:42;1.55;;;1.00;;
49812;SDS011;35706;52.100;5.056;2023-04-24T01:19:43;1.55;;;0.95;;
49812;SDS011;35706;52.100;5.056;2023-04-24T01:20:46;3.03;;;1.35;;
49812;SDS011;35706;52.100;5.056;2023-04-24T01:21:48;1.42;;;0.90;;
49812;SDS011;35706;52.100;5.056;2023-04-24T01:22:54;1.75;;;1.20;;
49812;SDS011;35706;52.100;5.056;2023-04-24T01:23:56;1.92;;;1.10;;
49812;SDS011;35706;52.100;5.056;2023-04-24T01:24:56;4.28;;;1.70;;
49812;SDS011;35706;52.100;5.056;2023-04-24T01:25:57;3.10;;;1.30;;
49812;SDS011;35706;52.100;5.056;2023-04-24T01:26:57;2.83;;;1.60;;
49812;SDS011;35706;52.100;5.056;2023-04-24T01:27:58;3.28;;;1.20;;
49812;SDS011;35706;52.100;5.056;2023-04-24T01:28:58;1.83;;;1.35;;
49812;SDS011;35706;52.100;5.056;2023-04-24T01:29:59;2.00;;;1.27;;
49812;SDS011;35706;52.100;5.056;2023-04-24T01:30:59;2.85;;;1.42;;
49812;SDS011;35706;52.100;5.056;2023-04-24T01:31:59;2.20;;;1.70;;
49812;SDS011;35706;52.100;5.056;2023-04-24T01:33:00;2.47;;;1.10;;
49812;SDS011;35706;52.100;5.056;2023-04-24T01:34:01;2.17;;;1.90;;
49812;SDS011;35706;52.100;5.056;2023-04-24T01:35:02;2.53;;;1.30;;
49812;SDS011;35706;52.100;5.056;2023-04-24T01:36:03;2.00;;;1.30;;
49812;SDS011;35706;52.100;5.056;2023-04-24T01:37:04;2.05;;;1.65;;
49812;SDS011;35706;52.100;5.056;2023-04-24T01:38:05;3.42;;;1.48;;
49812;SDS011;35706;52.100;5.056;2023-04-24T01:39:05;2.13;;;1.65;;
49812;SDS011;35706;52.100;5.056;2023-04-24T01:40:06;2.80;;;1.40;;
49812;SDS011;35706;52.100;5.056;2023-04-24T01:41:07;3.65;;;1.48;;
49812;SDS011;35706;52.100;5.056;2023-04-24T01:42:07;3.58;;;1.70;;
49812;SDS011;35706;52.100;5.056;2023-04-24T01:43:08;3.97;;;1.40;;
49812;SDS011;35706;52.100;5.056;2023-04-24T01:44:08;2.40;;;1.65;;
49812;SDS011;35706;52.100;5.056;2023-04-24T01:45:10;2.10;;;1.77;;
49812;SDS011;35706;52.100;5.056;2023-04-24T01:46:12;2.67;;;1.67;;
49812;SDS011;35706;52.100;5.056;2023-04-24T01:47:12;2.00;;;1.70;;
49812;SDS011;35706;52.100;5.056;2023-04-24T01:48:13;3.20;;;1.80;;
49812;SDS011;35706;52.100;5.056;2023-04-24T01:49:14;2.38;;;1.90;;
49812;SDS011;35706;52.100;5.056;2023-04-24T01:50:14;2.80;;;2.00;;
49812;SDS011;35706;52.100;5.056;2023-04-24T01:51:14;3.28;;;1.83;;
49812;SDS011;35706;52.100;5.056;2023-04-24T01:52:15;2.40;;;1.85;;
49812;SDS011;35706;52.100;5.056;2023-04-24T01:53:16;1.80;;;1.45;;
49812;SDS011;35706;52.100;5.056;2023-04-24T01:54:16;2.50;;;1.58;;
49812;SDS011;35706;52.100;5.056;2023-04-24T01:55:17;3.63;;;1.40;;
49812;SDS011;35706;52.100;5.056;2023-04-24T01:56:17;1.67;;;1.20;;
49812;SDS011;35706;52.100;5.056;2023-04-24T01:57:18;4.22;;;1.15;;
49812;SDS011;35706;52.100;5.056;2023-04-24T01:58:18;1.65;;;1.20;;
49812;SDS011;35706;52.100;5.056;2023-04-24T01:59:19;2.55;;;1.52;;
49812;SDS011;35706;52.100;5.056;2023-04-24T02:00:20;1.40;;;1.10;;
49812;SDS011;35706;52.100;5.056;2023-04-24T02:01:21;3.15;;;1.13;;
49812;SDS011;35706;52.100;5.056;2023-04-24T02:02:21;3.03;;;1.02;;
49812;SDS011;35706;52.100;5.056;2023-04-24T02:03:24;2.05;;;1.02;;
49812;SDS011;35706;52.100;5.056;2023-04-24T02:04:25;1.63;;;1.23;;
49812;SDS011;35706;52.100;5.056;2023-04-24T02:05:25;2.55;;;1.00;;
49812;SDS011;35706;52.100;5.056;2023-04-24T02:06:26;3.17;;;1.02;;
49812;SDS011;35706;52.100;5.056;2023-04-24T02:07:26;1.80;;;1.30;;
49812;SDS011;35706;52.100;5.056;2023-04-24T02:08:26;4.03;;;1.45;;
49812;SDS011;35706;52.100;5.056;2023-04-24T02:09:27;1.70;;;1.35;;
49812;SDS011;35706;52.100;5.056;2023-04-24T02:10:27;1.80;;;1.20;;
49812;SDS011;35706;52.100;5.056;2023-04-24T02:11:27;1.67;;;1.20;;
49812;SDS011;35706;52.100;5.056;2023-04-24T02:12:27;2.33;;;1.38;;
49812;SDS011;35706;52.100;5.056;2023-04-24T02:13:28;2.53;;;1.75;;
49812;SDS011;35706;52.100;5.056;2023-04-24T02:14:28;3.05;;;1.60;;
49812;SDS011;35706;52.100;5.056;2023-04-24T02:15:29;2.67;;;1.48;;
49812;SDS011;35706;52.100;5.056;2023-04-24T02:16:29;2.28;;;1.48;;
49812;SDS011;35706;52.100;5.056;2023-04-24T02:17:32;2.30;;;1.30;;
49812;SDS011;35706;52.100;5.056;2023-04-24T02:18:32;1.75;;;1.30;;
49812;SDS011;35706;52.100;5.056;2023-04-24T02:19:32;2.33;;;1.52;;
49812;SDS011;35706;52.100;5.056;2023-04-24T02:20:33;3.05;;;1.75;;
49812;SDS011;35706;52.100;5.056;2023-04-24T02:21:36;2.45;;;1.42;;
49812;SDS011;35706;52.100;5.056;2023-04-24T02:22:37;3.75;;;1.98;;
49812;SDS011;35706;52.100;5.056;2023-04-24T02:23:37;3.25;;;1.88;;
49812;SDS011;35706;52.100;5.056;2023-04-24T02:24:37;1.60;;;1.40;;
49812;SDS011;35706;52.100;5.056;2023-04-24T02:25:38;3.08;;;1.30;;
49812;SDS011;35706;52.100;5.056;2023-04-24T02:26:39;2.05;;;1.67;;
49812;SDS011;35706;52.100;5.056;2023-04-24T02:27:39;4.50;;;1.50;;
49812;SDS011;35706;52.100;5.056;2023-04-24T02:28:39;3.53;;;1.65;;
49812;SDS011;35706;52.100;5.056;2023-04-24T02:29:39;2.78;;;1.40;;
49812;SDS011;35706;52.100;5.056;2023-04-24T02:30:40;2.42;;;1.10;;
49812;SDS011;35706;52.100;5.056;2023-04-24T02:31:40;2.58;;;1.00;;
49812;SDS011;35706;52.100;5.056;2023-04-24T02:32:40;1.35;;;0.80;;
49812;SDS011;35706;52.100;5.056;2023-04-24T02:33:41;2.90;;;0.98;;
49812;SDS011;35706;52.100;5.056;2023-04-24T02:34:41;1.60;;;0.90;;
49812;SDS011;35706;52.100;5.056;2023-04-24T02:35:41;2.20;;;0.88;;
49812;SDS011;35706;52.100;5.056;2023-04-24T02:36:42;1.60;;;0.95;;
49812;SDS011;35706;52.100;5.056;2023-04-24T02:37:42;2.65;;;0.80;;
49812;SDS011;35706;52.100;5.056;2023-04-24T02:38:42;1.17;;;0.70;;
49812;SDS011;35706;52.100;5.056;2023-04-24T02:39:43;1.38;;;0.80;;
49812;SDS011;35706;52.100;5.056;2023-04-24T02:40:43;1.48;;;0.90;;
49812;SDS011;35706;52.100;5.056;2023-04-24T02:41:43;1.50;;;0.98;;
49812;SDS011;35706;52.100;5.056;2023-04-24T02:42:44;1.85;;;0.90;;
49812;SDS011;35706;52.100;5.056;2023-04-24T02:43:44;2.08;;;0.85;;
49812;SDS011;35706;52.100;5.056;2023-04-24T02:44:44;1.45;;;0.90;;
49812;SDS011;35706;52.100;5.056;2023-04-24T02:45:45;1.23;;;0.70;;
49812;SDS011;35706;52.100;5.056;2023-04-24T02:46:45;2.20;;;0.88;;
49812;SDS011;35706;52.100;5.056;2023-04-24T02:47:45;1.63;;;0.93;;
49812;SDS011;35706;52.100;5.056;2023-04-24T02:48:46;3.30;;;1.00;;
49812;SDS011;35706;52.100;5.056;2023-04-24T02:49:46;1.77;;;0.90;;
49812;SDS011;35706;52.100;5.056;2023-04-24T02:50:46;1.70;;;1.00;;
49812;SDS011;35706;52.100;5.056;2023-04-24T02:51:47;2.22;;;1.10;;
49812;SDS011;35706;52.100;5.056;2023-04-24T02:52:47;4.43;;;1.48;;
49812;SDS011;35706;52.100;5.056;2023-04-24T02:53:48;1.77;;;1.40;;
49812;SDS011;35706;52.100;5.056;2023-04-24T02:54:48;3.03;;;1.55;;
49812;SDS011;35706;52.100;5.056;2023-04-24T02:55:48;4.30;;;1.40;;
49812;SDS011;35706;52.100;5.056;2023-04-24T02:56:49;3.35;;;1.75;;
49812;SDS011;35706;52.100;5.056;2023-04-24T02:57:49;2.95;;;1.50;;
49812;SDS011;35706;52.100;5.056;2023-04-24T02:58:50;3.28;;;2.05;;
49812;SDS011;35706;52.100;5.056;2023-04-24T02:59:50;3.90;;;1.45;;
49812;SDS011;35706;52.100;5.056;2023-04-24T03:00:54;3.35;;;1.70;;
49812;SDS011;35706;52.100;5.056;2023-04-24T03:01:57;2.28;;;1.60;;
49812;SDS011;35706;52.100;5.056;2023-04-24T03:02:58;4.13;;;1.77;;
49812;SDS011;35706;52.100;5.056;2023-04-24T03:03:58;2.20;;;1.90;;
49812;SDS011;35706;52.100;5.056;2023-04-24T03:04:58;2.05;;;1.75;;
49812;SDS011;35706;52.100;5.056;2023-04-24T03:05:59;2.55;;;1.40;;
49812;SDS011;35706;52.100;5.056;2023-04-24T03:07:00;3.13;;;1.50;;
49812;SDS011;35706;52.100;5.056;2023-04-24T03:08:01;3.75;;;1.60;;
49812;SDS011;35706;52.100;5.056;2023-04-24T03:09:01;2.95;;;1.40;;
49812;SDS011;35706;52.100;5.056;2023-04-24T03:10:03;4.30;;;1.45;;
49812;SDS011;35706;52.100;5.056;2023-04-24T03:11:05;2.67;;;1.50;;
49812;SDS011;35706;52.100;5.056;2023-04-24T03:12:06;1.73;;;1.40;;
49812;SDS011;35706;52.100;5.056;2023-04-24T03:13:06;2.13;;;1.42;;
49812;SDS011;35706;52.100;5.056;2023-04-24T03:14:06;2.00;;;1.58;;
49812;SDS011;35706;52.100;5.056;2023-04-24T03:15:07;3.55;;;1.42;;
49812;SDS011;35706;52.100;5.056;2023-04-24T03:16:08;1.67;;;1.13;;
49812;SDS011;35706;52.100;5.056;2023-04-24T03:17:08;3.25;;;1.10;;
49812;SDS011;35706;52.100;5.056;2023-04-24T03:18:08;2.28;;;1.08;;
49812;SDS011;35706;52.100;5.056;2023-04-24T03:19:09;4.43;;;0.90;;
49812;SDS011;35706;52.100;5.056;2023-04-24T03:20:09;3.13;;;1.05;;
49812;SDS011;35706;52.100;5.056;2023-04-24T03:21:09;1.70;;;1.00;;
49812;SDS011;35706;52.100;5.056;2023-04-24T03:22:10;2.00;;;0.90;;
49812;SDS011;35706;52.100;5.056;2023-04-24T03:23:11;3.10;;;0.90;;
49812;SDS011;35706;52.100;5.056;2023-04-24T03:24:11;2.13;;;1.20;;
49812;SDS011;35706;52.100;5.056;2023-04-24T03:25:11;1.90;;;0.70;;
49812;SDS011;35706;52.100;5.056;2023-04-24T03:26:12;2.60;;;1.00;;
49812;SDS011;35706;52.100;5.056;2023-04-24T03:27:12;2.58;;;0.90;;
49812;SDS011;35706;52.100;5.056;2023-04-24T03:28:12;1.98;;;0.80;;
49812;SDS011;35706;52.100;5.056;2023-04-24T03:29:13;1.30;;;0.70;;
49812;SDS011;35706;52.100;5.056;2023-04-24T03:30:13;2.50;;;0.80;;
49812;SDS011;35706;52.100;5.056;2023-04-24T03:31:13;1.80;;;0.80;;
49812;SDS011;35706;52.100;5.056;2023-04-24T03:32:15;1.73;;;0.80;;
49812;SDS011;35706;52.100;5.056;2023-04-24T03:33:15;2.15;;;0.70;;
49812;SDS011;35706;52.100;5.056;2023-04-24T03:34:15;1.50;;;0.70;;
49812;SDS011;35706;52.100;5.056;2023-04-24T03:35:16;2.53;;;0.70;;
49812;SDS011;35706;52.100;5.056;2023-04-24T03:36:16;1.15;;;0.60;;
49812;SDS011;35706;52.100;5.056;2023-04-24T03:37:17;2.45;;;0.70;;
49812;SDS011;35706;52.100;5.056;2023-04-24T03:38:17;3.15;;;0.80;;
49812;SDS011;35706;52.100;5.056;2023-04-24T03:39:18;1.90;;;0.70;;
49812;SDS011;35706;52.100;5.056;2023-04-24T03:40:18;1.27;;;0.70;;
49812;SDS011;35706;52.100;5.056;2023-04-24T03:41:18;2.88;;;0.80;;
49812;SDS011;35706;52.100;5.056;2023-04-24T03:42:19;1.35;;;0.77;;
49812;SDS011;35706;52.100;5.056;2023-04-24T03:43:20;1.77;;;0.85;;
49812;SDS011;35706;52.100;5.056;2023-04-24T03:44:20;2.20;;;1.10;;
49812;SDS011;35706;52.100;5.056;2023-04-24T03:45:20;2.00;;;0.80;;
49812;SDS011;35706;52.100;5.056;2023-04-24T03:46:21;3.00;;;0.90;;
49812;SDS011;35706;52.100;5.056;2023-04-24T03:47:21;3.67;;;1.00;;
49812;SDS011;35706;52.100;5.056;2023-04-24T03:48:21;1.80;;;1.05;;
49812;SDS011;35706;52.100;5.056;2023-04-24T03:49:21;1.92;;;1.13;;
49812;SDS011;35706;52.100;5.056;2023-04-24T03:50:22;2.20;;;1.00;;
49812;SDS011;35706;52.100;5.056;2023-04-24T03:51:22;1.73;;;0.80;;
49812;SDS011;35706;52.100;5.056;2023-04-24T03:52:23;3.30;;;1.00;;
49812;SDS011;35706;52.100;5.056;2023-04-24T03:53:23;2.17;;;0.90;;
49812;SDS011;35706;52.100;5.056;2023-04-24T03:54:23;3.60;;;1.00;;
49812;SDS011;35706;52.100;5.056;2023-04-24T03:55:24;1.90;;;1.00;;
49812;SDS011;35706;52.100;5.056;2023-04-24T03:56:24;1.75;;;0.93;;
49812;SDS011;35706;52.100;5.056;2023-04-24T03:57:25;1.80;;;1.20;;
49812;SDS011;35706;52.100;5.056;2023-04-24T03:58:25;1.83;;;1.08;;
49812;SDS011;35706;52.100;5.056;2023-04-24T03:59:25;1.85;;;1.08;;
49812;SDS011;35706;52.100;5.056;2023-04-24T04:00:25;2.55;;;1.38;;
49812;SDS011;35706;52.100;5.056;2023-04-24T04:01:26;4.18;;;1.27;;
49812;SDS011;35706;52.100;5.056;2023-04-24T04:02:28;3.15;;;1.20;;
49812;SDS011;35706;52.100;5.056;2023-04-24T04:03:28;2.25;;;1.23;;
49812;SDS011;35706;52.100;5.056;2023-04-24T04:04:28;2.30;;;1.40;;
49812;SDS011;35706;52.100;5.056;2023-04-24T04:05:29;2.17;;;1.30;;
49812;SDS011;35706;52.100;5.056;2023-04-24T04:06:29;4.68;;;1.52;;
49812;SDS011;35706;52.100;5.056;2023-04-24T04:07:30;2.58;;;1.25;;
49812;SDS011;35706;52.100;5.056;2023-04-24T04:08:31;2.00;;;1.52;;
49812;SDS011;35706;52.100;5.056;2023-04-24T04:09:31;3.13;;;1.48;;
49812;SDS011;35706;52.100;5.056;2023-04-24T04:10:32;2.78;;;2.05;;
49812;SDS011;35706;52.100;5.056;2023-04-24T04:11:32;2.30;;;1.52;;
49812;SDS011;35706;52.100;5.056;2023-04-24T04:12:33;2.30;;;1.70;;
49812;SDS011;35706;52.100;5.056;2023-04-24T04:13:33;2.88;;;1.88;;
49812;SDS011;35706;52.100;5.056;2023-04-24T04:14:33;3.63;;;2.17;;
49812;SDS011;35706;52.100;5.056;2023-04-24T04:15:34;2.30;;;1.92;;
49812;SDS011;35706;52.100;5.056;2023-04-24T04:16:34;3.15;;;1.80;;
49812;SDS011;35706;52.100;5.056;2023-04-24T04:17:36;3.60;;;2.67;;
49812;SDS011;35706;52.100;5.056;2023-04-24T04:18:37;4.05;;;2.38;;
49812;SDS011;35706;52.100;5.056;2023-04-24T04:19:38;3.22;;;1.83;;
49812;SDS011;35706;52.100;5.056;2023-04-24T04:20:38;2.58;;;2.08;;
49812;SDS011;35706;52.100;5.056;2023-04-24T04:21:39;3.40;;;2.22;;
49812;SDS011;35706;52.100;5.056;2023-04-24T04:22:39;2.50;;;2.15;;
49812;SDS011;35706;52.100;5.056;2023-04-24T04:23:39;3.35;;;2.30;;
49812;SDS011;35706;52.100;5.056;2023-04-24T04:24:40;3.13;;;2.05;;
49812;SDS011;35706;52.100;5.056;2023-04-24T04:25:40;4.88;;;2.50;;
49812;SDS011;35706;52.100;5.056;2023-04-24T04:26:40;2.75;;;2.28;;
49812;SDS011;35706;52.100;5.056;2023-04-24T04:27:41;3.10;;;1.98;;
49812;SDS011;35706;52.100;5.056;2023-04-24T04:28:41;3.22;;;2.40;;
49812;SDS011;35706;52.100;5.056;2023-04-24T04:29:42;3.20;;;2.53;;
49812;SDS011;35706;52.100;5.056;2023-04-24T04:30:42;2.33;;;2.05;;
49812;SDS011;35706;52.100;5.056;2023-04-24T04:31:42;3.85;;;2.05;;
49812;SDS011;35706;52.100;5.056;2023-04-24T04:32:43;3.35;;;2.63;;
49812;SDS011;35706;52.100;5.056;2023-04-24T04:33:43;3.70;;;1.73;;
49812;SDS011;35706;52.100;5.056;2023-04-24T04:34:44;3.25;;;2.00;;
49812;SDS011;35706;52.100;5.056;2023-04-24T04:35:45;3.25;;;2.45;;
49812;SDS011;35706;52.100;5.056;2023-04-24T04:36:48;4.15;;;2.40;;
49812;SDS011;35706;52.100;5.056;2023-04-24T04:37:50;4.22;;;2.35;;
49812;SDS011;35706;52.100;5.056;2023-04-24T04:38:51;2.78;;;1.98;;
49812;SDS011;35706;52.100;5.056;2023-04-24T04:39:51;2.25;;;1.60;;
49812;SDS011;35706;52.100;5.056;2023-04-24T04:40:53;2.47;;;1.00;;
49812;SDS011;35706;52.100;5.056;2023-04-24T04:41:53;2.08;;;1.17;;
49812;SDS011;35706;52.100;5.056;2023-04-24T04:42:54;3.15;;;1.60;;
49812;SDS011;35706;52.100;5.056;2023-04-24T04:43:54;2.35;;;1.52;;
49812;SDS011;35706;52.100;5.056;2023-04-24T04:44:54;2.92;;;1.20;;
49812;SDS011;35706;52.100;5.056;2023-04-24T04:45:57;2.03;;;0.80;;
49812;SDS011;35706;52.100;5.056;2023-04-24T04:46:58;2.10;;;0.80;;
49812;SDS011;35706;52.100;5.056;2023-04-24T04:48:00;1.10;;;0.60;;
49812;SDS011;35706;52.100;5.056;2023-04-24T04:49:02;1.08;;;0.50;;
49812;SDS011;35706;52.100;5.056;2023-04-24T04:50:03;1.25;;;0.60;;
49812;SDS011;35706;52.100;5.056;2023-04-24T04:51:04;2.90;;;0.40;;
49812;SDS011;35706;52.100;5.056;2023-04-24T04:52:04;0.95;;;0.40;;
49812;SDS011;35706;52.100;5.056;2023-04-24T04:53:05;0.70;;;0.30;;
49812;SDS011;35706;52.100;5.056;2023-04-24T04:54:06;2.72;;;0.30;;
49812;SDS011;35706;52.100;5.056;2023-04-24T04:55:07;0.93;;;0.28;;
49812;SDS011;35706;52.100;5.056;2023-04-24T04:56:08;1.00;;;0.30;;
49812;SDS011;35706;52.100;5.056;2023-04-24T04:57:08;0.50;;;0.20;;
49812;SDS011;35706;52.100;5.056;2023-04-24T04:58:09;0.50;;;0.20;;
49812;SDS011;35706;52.100;5.056;2023-04-24T04:59:09;0.40;;;0.10;;
49812;SDS011;35706;52.100;5.056;2023-04-24T05:00:11;0.50;;;0.10;;
49812;SDS011;35706;52.100;5.056;2023-04-24T05:01:12;0.20;;;0.10;;
49812;SDS011;35706;52.100;5.056;2023-04-24T05:02:12;0.40;;;0.10;;
49812;SDS011;35706;52.100;5.056;2023-04-24T05:03:12;0.22;;;0.10;;
49812;SDS011;35706;52.100;5.056;2023-04-24T05:04:13;0.20;;;0.10;;
49812;SDS011;35706;52.100;5.056;2023-04-24T05:05:13;0.20;;;0.10;;
49812;SDS011;35706;52.100;5.056;2023-04-24T05:06:13;0.32;;;0.10;;
49812;SDS011;35706;52.100;5.056;2023-04-24T05:07:14;0.60;;;0.00;;
49812;SDS011;35706;52.100;5.056;2023-04-24T05:08:14;0.28;;;0.10;;
49812;SDS011;35706;52.100;5.056;2023-04-24T05:09:14;0.28;;;0.05;;
49812;SDS011;35706;52.100;5.056;2023-04-24T05:10:15;1.00;;;0.00;;
49812;SDS011;35706;52.100;5.056;2023-04-24T05:11:15;0.47;;;0.00;;
49812;SDS011;35706;52.100;5.056;2023-04-24T05:12:15;0.20;;;0.00;;
49812;SDS011;35706;52.100;5.056;2023-04-24T05:13:15;0.20;;;0.10;;
49812;SDS011;35706;52.100;5.056;2023-04-24T05:14:16;1.15;;;0.00;;
49812;SDS011;35706;52.100;5.056;2023-04-24T05:15:17;0.45;;;0.08;;
49812;SDS011;35706;52.100;5.056;2023-04-24T05:16:18;0.68;;;0.00;;
49812;SDS011;35706;52.100;5.056;2023-04-24T05:17:18;0.55;;;0.10;;
49812;SDS011;35706;52.100;5.056;2023-04-24T05:18:18;0.30;;;0.00;;
49812;SDS011;35706;52.100;5.056;2023-04-24T05:19:19;0.00;;;0.00;;
49812;SDS011;35706;52.100;5.056;2023-04-24T05:20:19;0.40;;;0.00;;
49812;SDS011;35706;52.100;5.056;2023-04-24T05:21:19;0.70;;;0.00;;
49812;SDS011;35706;52.100;5.056;2023-04-24T05:22:20;0.30;;;0.00;;
49812;SDS011;35706;52.100;5.056;2023-04-24T05:23:21;0.82;;;0.10;;
49812;SDS011;35706;52.100;5.056;2023-04-24T05:24:21;0.28;;;0.03;;
49812;SDS011;35706;52.100;5.056;2023-04-24T05:25:21;0.50;;;0.10;;
49812;SDS011;35706;52.100;5.056;2023-04-24T05:26:22;0.30;;;0.10;;
49812;SDS011;35706;52.100;5.056;2023-04-24T05:27:22;0.38;;;0.10;;
49812;SDS011;35706;52.100;5.056;2023-04-24T05:28:23;0.52;;;0.10;;
49812;SDS011;35706;52.100;5.056;2023-04-24T05:29:23;0.30;;;0.10;;
49812;SDS011;35706;52.100;5.056;2023-04-24T05:30:24;0.40;;;0.10;;
49812;SDS011;35706;52.100;5.056;2023-04-24T05:31:24;0.20;;;0.10;;
49812;SDS011;35706;52.100;5.056;2023-04-24T05:32:25;0.50;;;0.10;;
49812;SDS011;35706;52.100;5.056;2023-04-24T05:33:27;0.88;;;0.10;;
49812;SDS011;35706;52.100;5.056;2023-04-24T05:34:27;0.50;;;0.20;;
49812;SDS011;35706;52.100;5.056;2023-04-24T05:35:27;0.28;;;0.10;;
49812;SDS011;35706;52.100;5.056;2023-04-24T05:36:27;0.30;;;0.20;;
49812;SDS011;35706;52.100;5.056;2023-04-24T05:37:28;0.32;;;0.10;;
49812;SDS011;35706;52.100;5.056;2023-04-24T05:38:28;0.28;;;0.10;;
49812;SDS011;35706;52.100;5.056;2023-04-24T05:39:28;1.98;;;0.20;;
49812;SDS011;35706;52.100;5.056;2023-04-24T05:40:29;0.70;;;0.20;;
49812;SDS011;35706;52.100;5.056;2023-04-24T05:41:29;0.60;;;0.20;;
49812;SDS011;35706;52.100;5.056;2023-04-24T05:42:29;1.35;;;0.20;;
49812;SDS011;35706;52.100;5.056;2023-04-24T05:43:30;0.50;;;0.20;;
49812;SDS011;35706;52.100;5.056;2023-04-24T05:44:30;0.68;;;0.20;;
49812;SDS011;35706;52.100;5.056;2023-04-24T05:45:31;1.63;;;0.20;;
49812;SDS011;35706;52.100;5.056;2023-04-24T05:46:31;1.80;;;0.20;;
49812;SDS011;35706;52.100;5.056;2023-04-24T05:47:32;1.27;;;0.30;;
49812;SDS011;35706;52.100;5.056;2023-04-24T05:48:32;1.15;;;0.20;;
49812;SDS011;35706;52.100;5.056;2023-04-24T05:49:32;0.65;;;0.15;;
49812;SDS011;35706;52.100;5.056;2023-04-24T05:50:32;1.05;;;0.20;;
49812;SDS011;35706;52.100;5.056;2023-04-24T05:51:33;0.45;;;0.10;;
49812;SDS011;35706;52.100;5.056;2023-04-24T05:52:33;0.85;;;0.20;;
49812;SDS011;35706;52.100;5.056;2023-04-24T05:53:34;0.25;;;0.10;;
49812;SDS011;35706;52.100;5.056;2023-04-24T05:54:34;0.38;;;0.10;;
49812;SDS011;35706;52.100;5.056;2023-04-24T05:55:35;1.52;;;0.10;;
49812;SDS011;35706;52.100;5.056;2023-04-24T05:56:35;0.40;;;0.10;;
49812;SDS011;35706;52.100;5.056;2023-04-24T05:57:36;0.38;;;0.10;;
49812;SDS011;35706;52.100;5.056;2023-04-24T05:58:36;0.30;;;0.10;;
49812;SDS011;35706;52.100;5.056;2023-04-24T05:59:37;0.43;;;0.05;;
49812;SDS011;35706;52.100;5.056;2023-04-24T06:00:41;0.73;;;0.10;;
49812;SDS011;35706;52.100;5.056;2023-04-24T06:01:42;1.17;;;0.20;;
49812;SDS011;35706;52.100;5.056;2023-04-24T06:02:43;0.68;;;0.20;;
49812;SDS011;35706;52.100;5.056;2023-04-24T06:03:43;1.13;;;0.30;;
49812;SDS011;35706;52.100;5.056;2023-04-24T06:04:43;2.65;;;0.70;;
49812;SDS011;35706;52.100;5.056;2023-04-24T06:05:44;3.05;;;0.80;;